sensor_id;sensor_type;location;lat;lon;timestamp;P1;P2;P0
74880;PMS5003;63427;49.654;6.596;2024-02-15T00:01:08;6;5;
74880;PMS5003;63427;49.654;6.596;2024-02-15T00:03:33;4;4;
74880;PMS5003;63427;49.654;6.596;2024-02-15T00:05:59;5;4;
74880;PMS5003;63427;49.654;6.596;2024-02-15T00:08:24;5;5;
74880;PMS5003;63427;49.654;6.596;2024-02-15T00:10:50;6;6;
74880;PMS5003;63427;49.654;6.596;2024-02-15T00:13:15;4;4;
74880;PMS5003;63427;49.654;6.596;2024-02-15T00:15:41;5;5;
74880;PMS5003;63427;49.654;6.596;2024-02-15T00:20:31;3;3;
74880;PMS5003;63427;49.654;6.596;2024-02-15T00:27:47;5;5;
74880;PMS5003;63427;49.654;6.596;2024-02-15T00:30:13;6;6;
74880;PMS5003;63427;49.654;6.596;2024-02-15T00:32:38;4;4;
74880;PMS5003;63427;49.654;6.596;2024-02-15T00:35:04;5;5;
74880;PMS5003;63427;49.654;6.596;2024-02-15T00:37:29;6;6;
74880;PMS5003;63427;49.654;6.596;2024-02-15T00:42:20;4;4;
74880;PMS5003;63427;49.654;6.596;2024-02-15T00:44:45;4;4;
74880;PMS5003;63427;49.654;6.596;2024-02-15T00:47:10;4;4;
74880;PMS5003;63427;49.654;6.596;2024-02-15T00:49:37;6;6;
74880;PMS5003;63427;49.654;6.596;2024-02-15T00:59:17;5;5;
74880;PMS5003;63427;49.654;6.596;2024-02-15T01:01:44;6;6;
74880;PMS5003;63427;49.654;6.596;2024-02-15T01:04:08;5;5;
74880;PMS5003;63427;49.654;6.596;2024-02-15T01:06:42;6;5;
74880;PMS5003;63427;49.654;6.596;2024-02-15T01:09:01;4;4;
74880;PMS5003;63427;49.654;6.596;2024-02-15T01:11:24;5;5;
74880;PMS5003;63427;49.654;6.596;2024-02-15T01:13:49;4;4;
74880;PMS5003;63427;49.654;6.596;2024-02-15T01:16:14;9;8;
74880;PMS5003;63427;49.654;6.596;2024-02-15T01:18:40;5;5;
74880;PMS5003;63427;49.654;6.596;2024-02-15T01:21:14;6;6;
74880;PMS5003;63427;49.654;6.596;2024-02-15T01:23:30;4;4;
74880;PMS5003;63427;49.654;6.596;2024-02-15T01:26:02;8;7;
74880;PMS5003;63427;49.654;6.596;2024-02-15T01:28:21;6;5;
74880;PMS5003;63427;49.654;6.596;2024-02-15T01:31:01;7;6;
74880;PMS5003;63427;49.654;6.596;2024-02-15T01:33:11;5;4;
74880;PMS5003;63427;49.654;6.596;2024-02-15T01:35:37;6;6;
74880;PMS5003;63427;49.654;6.596;2024-02-15T01:38:02;4;4;
74880;PMS5003;63427;49.654;6.596;2024-02-15T01:42:53;3;3;
74880;PMS5003;63427;49.654;6.596;2024-02-15T01:45:18;5;5;
74880;PMS5003;63427;49.654;6.596;2024-02-15T01:47:51;6;6;
74880;PMS5003;63427;49.654;6.596;2024-02-15T01:50:09;4;4;
74880;PMS5003;63427;49.654;6.596;2024-02-15T01:52:34;5;5;
74880;PMS5003;63427;49.654;6.596;2024-02-15T01:55:00;6;5;
74880;PMS5003;63427;49.654;6.596;2024-02-15T01:57:25;6;6;
74880;PMS5003;63427;49.654;6.596;2024-02-15T02:02:24;6;6;
74880;PMS5003;63427;49.654;6.596;2024-02-15T02:04:42;6;5;
74880;PMS5003;63427;49.654;6.596;2024-02-15T02:07:07;6;6;
74880;PMS5003;63427;49.654;6.596;2024-02-15T02:09:32;6;6;
74880;PMS5003;63427;49.654;6.596;2024-02-15T02:11:58;6;5;
74880;PMS5003;63427;49.654;6.596;2024-02-15T02:14:23;7;7;
74880;PMS5003;63427;49.654;6.596;2024-02-15T02:16:48;10;9;
74880;PMS5003;63427;49.654;6.596;2024-02-15T02:21:39;6;6;
74880;PMS5003;63427;49.654;6.596;2024-02-15T02:26:30;6;6;
74880;PMS5003;63427;49.654;6.596;2024-02-15T02:28:56;7;7;
74880;PMS5003;63427;49.654;6.596;2024-02-15T02:31:21;8;7;
74880;PMS5003;63427;49.654;6.596;2024-02-15T02:34:01;5;5;
74880;PMS5003;63427;49.654;6.596;2024-02-15T02:36:21;6;6;
74880;PMS5003;63427;49.654;6.596;2024-02-15T02:38:37;5;4;
74880;PMS5003;63427;49.654;6.596;2024-02-15T02:41:03;5;5;
74880;PMS5003;63427;49.654;6.596;2024-02-15T02:45:53;6;6;
74880;PMS5003;63427;49.654;6.596;2024-02-15T02:48:19;10;9;
74880;PMS5003;63427;49.654;6.596;2024-02-15T02:50:44;8;6;
74880;PMS5003;63427;49.654;6.596;2024-02-15T02:53:10;6;5;
74880;PMS5003;63427;49.654;6.596;2024-02-15T02:55:40;11;8;
74880;PMS5003;63427;49.654;6.596;2024-02-15T02:58:01;6;6;
74880;PMS5003;63427;49.654;6.596;2024-02-15T03:00:34;8;8;
74880;PMS5003;63427;49.654;6.596;2024-02-15T03:02:51;6;6;
74880;PMS5003;63427;49.654;6.596;2024-02-15T03:05:17;5;5;
74880;PMS5003;63427;49.654;6.596;2024-02-15T03:07:42;5;5;
74880;PMS5003;63427;49.654;6.596;2024-02-15T03:10:08;7;7;
74880;PMS5003;63427;49.654;6.596;2024-02-15T03:12:33;5;5;
74880;PMS5003;63427;49.654;6.596;2024-02-15T03:14:58;5;5;
74880;PMS5003;63427;49.654;6.596;2024-02-15T03:17:23;4;4;
74880;PMS5003;63427;49.654;6.596;2024-02-15T03:19:49;5;5;
74880;PMS5003;63427;49.654;6.596;2024-02-15T03:24:40;6;6;
74880;PMS5003;63427;49.654;6.596;2024-02-15T03:27:05;6;6;
74880;PMS5003;63427;49.654;6.596;2024-02-15T03:29:31;4;4;
74880;PMS5003;63427;49.654;6.596;2024-02-15T03:31:56;7;6;
74880;PMS5003;63427;49.654;6.596;2024-02-15T03:34:21;5;5;
74880;PMS5003;63427;49.654;6.596;2024-02-15T03:39:12;3;3;
74880;PMS5003;63427;49.654;6.596;2024-02-15T03:41:39;3;3;
74880;PMS5003;63427;49.654;6.596;2024-02-15T03:44:03;8;7;
74880;PMS5003;63427;49.654;6.596;2024-02-15T03:46:28;8;7;
74880;PMS5003;63427;49.654;6.596;2024-02-15T03:48:54;5;5;
74880;PMS5003;63427;49.654;6.596;2024-02-15T03:51:19;6;6;
74880;PMS5003;63427;49.654;6.596;2024-02-15T03:53:44;5;5;
74880;PMS5003;63427;49.654;6.596;2024-02-15T03:56:10;8;8;
74880;PMS5003;63427;49.654;6.596;2024-02-15T03:58:35;8;7;
74880;PMS5003;63427;49.654;6.596;2024-02-15T04:03:26;5;4;
74880;PMS5003;63427;49.654;6.596;2024-02-15T04:05:51;7;6;
74880;PMS5003;63427;49.654;6.596;2024-02-15T04:08:17;5;5;
74880;PMS5003;63427;49.654;6.596;2024-02-15T04:10:42;6;6;
74880;PMS5003;63427;49.654;6.596;2024-02-15T04:13:08;7;6;
74880;PMS5003;63427;49.654;6.596;2024-02-15T04:18:01;6;6;
74880;PMS5003;63427;49.654;6.596;2024-02-15T04:20:24;7;5;
74880;PMS5003;63427;49.654;6.596;2024-02-15T04:22:50;8;7;
74880;PMS5003;63427;49.654;6.596;2024-02-15T04:25:15;6;6;
74880;PMS5003;63427;49.654;6.596;2024-02-15T04:27:41;6;6;
74880;PMS5003;63427;49.654;6.596;2024-02-15T04:30:09;5;5;
74880;PMS5003;63427;49.654;6.596;2024-02-15T04:32:32;7;7;
74880;PMS5003;63427;49.654;6.596;2024-02-15T04:34:57;8;8;
74880;PMS5003;63427;49.654;6.596;2024-02-15T04:39:48;6;6;
74880;PMS5003;63427;49.654;6.596;2024-02-15T04:42:13;7;7;
74880;PMS5003;63427;49.654;6.596;2024-02-15T04:44:38;7;6;
74880;PMS5003;63427;49.654;6.596;2024-02-15T04:47:04;6;6;
74880;PMS5003;63427;49.654;6.596;2024-02-15T04:49:29;8;8;
74880;PMS5003;63427;49.654;6.596;2024-02-15T04:56:46;9;8;
74880;PMS5003;63427;49.654;6.596;2024-02-15T04:59:11;7;7;
74880;PMS5003;63427;49.654;6.596;2024-02-15T05:01:37;7;7;
74880;PMS5003;63427;49.654;6.596;2024-02-15T05:04:02;7;7;
74880;PMS5003;63427;49.654;6.596;2024-02-15T05:06:27;9;7;
74880;PMS5003;63427;49.654;6.596;2024-02-15T05:09:01;7;7;
74880;PMS5003;63427;49.654;6.596;2024-02-15T05:11:18;7;7;
74880;PMS5003;63427;49.654;6.596;2024-02-15T05:13:44;8;7;
74880;PMS5003;63427;49.654;6.596;2024-02-15T05:16:10;7;7;
74880;PMS5003;63427;49.654;6.596;2024-02-15T05:18:35;7;7;
74880;PMS5003;63427;49.654;6.596;2024-02-15T05:21:01;6;6;
74880;PMS5003;63427;49.654;6.596;2024-02-15T05:23:26;6;6;
74880;PMS5003;63427;49.654;6.596;2024-02-15T05:25:51;8;7;
74880;PMS5003;63427;49.654;6.596;2024-02-15T05:28:17;6;6;
74880;PMS5003;63427;49.654;6.596;2024-02-15T05:30:42;15;15;
74880;PMS5003;63427;49.654;6.596;2024-02-15T05:33:08;14;13;
74880;PMS5003;63427;49.654;6.596;2024-02-15T05:35:34;30;29;
74880;PMS5003;63427;49.654;6.596;2024-02-15T05:37:59;19;18;
74880;PMS5003;63427;49.654;6.596;2024-02-15T05:40:24;11;11;
74880;PMS5003;63427;49.654;6.596;2024-02-15T05:47:49;8;8;
74880;PMS5003;63427;49.654;6.596;2024-02-15T05:50:06;8;7;
74880;PMS5003;63427;49.654;6.596;2024-02-15T05:54:58;7;6;
74880;PMS5003;63427;49.654;6.596;2024-02-15T05:57:22;7;7;
74880;PMS5003;63427;49.654;6.596;2024-02-15T05:59:55;8;8;
74880;PMS5003;63427;49.654;6.596;2024-02-15T06:02:13;9;9;
74880;PMS5003;63427;49.654;6.596;2024-02-15T06:04:47;10;10;
74880;PMS5003;63427;49.654;6.596;2024-02-15T06:07:04;7;7;
74880;PMS5003;63427;49.654;6.596;2024-02-15T06:09:30;9;8;
74880;PMS5003;63427;49.654;6.596;2024-02-15T06:11:55;10;9;
74880;PMS5003;63427;49.654;6.596;2024-02-15T06:14:21;7;7;
74880;PMS5003;63427;49.654;6.596;2024-02-15T06:19:12;8;7;
74880;PMS5003;63427;49.654;6.596;2024-02-15T06:21:37;7;6;
74880;PMS5003;63427;49.654;6.596;2024-02-15T06:24:03;12;12;
74880;PMS5003;63427;49.654;6.596;2024-02-15T06:36:10;10;10;
74880;PMS5003;63427;49.654;6.596;2024-02-15T06:43:26;12;11;
74880;PMS5003;63427;49.654;6.596;2024-02-15T06:45:51;9;9;
74880;PMS5003;63427;49.654;6.596;2024-02-15T06:55:32;8;8;
74880;PMS5003;63427;49.654;6.596;2024-02-15T06:57:58;12;10;
74880;PMS5003;63427;49.654;6.596;2024-02-15T07:00:24;9;9;
74880;PMS5003;63427;49.654;6.596;2024-02-15T07:02:50;9;9;
74880;PMS5003;63427;49.654;6.596;2024-02-15T07:14:57;11;10;
74880;PMS5003;63427;49.654;6.596;2024-02-15T07:17:22;9;9;
74880;PMS5003;63427;49.654;6.596;2024-02-15T07:19:47;9;9;
74880;PMS5003;63427;49.654;6.596;2024-02-15T07:22:13;9;9;
74880;PMS5003;63427;49.654;6.596;2024-02-15T07:24:38;9;9;
74880;PMS5003;63427;49.654;6.596;2024-02-15T07:29:29;10;9;
74880;PMS5003;63427;49.654;6.596;2024-02-15T07:31:55;9;9;
74880;PMS5003;63427;49.654;6.596;2024-02-15T07:34:20;9;9;
74880;PMS5003;63427;49.654;6.596;2024-02-15T07:39:11;13;13;
74880;PMS5003;63427;49.654;6.596;2024-02-15T07:41:37;9;9;
74880;PMS5003;63427;49.654;6.596;2024-02-15T07:44:02;10;10;
74880;PMS5003;63427;49.654;6.596;2024-02-15T07:46:27;10;10;
74880;PMS5003;63427;49.654;6.596;2024-02-15T07:48:53;12;12;
74880;PMS5003;63427;49.654;6.596;2024-02-15T07:51:19;11;10;
74880;PMS5003;63427;49.654;6.596;2024-02-15T07:53:44;10;10;
74880;PMS5003;63427;49.654;6.596;2024-02-15T07:56:10;14;12;
74880;PMS5003;63427;49.654;6.596;2024-02-15T08:03:26;9;9;
74880;PMS5003;63427;49.654;6.596;2024-02-15T08:08:16;9;8;
74880;PMS5003;63427;49.654;6.596;2024-02-15T08:10:48;10;10;
74880;PMS5003;63427;49.654;6.596;2024-02-15T08:18:06;12;12;
74880;PMS5003;63427;49.654;6.596;2024-02-15T08:23:00;13;12;
74880;PMS5003;63427;49.654;6.596;2024-02-15T08:25:14;9;9;
74880;PMS5003;63427;49.654;6.596;2024-02-15T08:27:47;14;14;
74880;PMS5003;63427;49.654;6.596;2024-02-15T08:37:21;9;8;
74880;PMS5003;63427;49.654;6.596;2024-02-15T08:42:12;12;12;
74880;PMS5003;63427;49.654;6.596;2024-02-15T08:44:37;11;10;
74880;PMS5003;63427;49.654;6.596;2024-02-15T08:47:02;8;8;
74880;PMS5003;63427;49.654;6.596;2024-02-15T08:49:30;12;11;
74880;PMS5003;63427;49.654;6.596;2024-02-15T08:51:53;11;10;
74880;PMS5003;63427;49.654;6.596;2024-02-15T08:54:19;9;9;
74880;PMS5003;63427;49.654;6.596;2024-02-15T08:56:44;11;10;
74880;PMS5003;63427;49.654;6.596;2024-02-15T08:59:10;11;10;
74880;PMS5003;63427;49.654;6.596;2024-02-15T09:01:35;9;8;
74880;PMS5003;63427;49.654;6.596;2024-02-15T09:04:05;10;10;
74880;PMS5003;63427;49.654;6.596;2024-02-15T09:06:29;9;9;
74880;PMS5003;63427;49.654;6.596;2024-02-15T09:09:03;10;10;
74880;PMS5003;63427;49.654;6.596;2024-02-15T09:11:16;10;9;
74880;PMS5003;63427;49.654;6.596;2024-02-15T09:13:42;12;12;
74880;PMS5003;63427;49.654;6.596;2024-02-15T09:16:07;9;9;
74880;PMS5003;63427;49.654;6.596;2024-02-15T09:20:58;9;8;
74880;PMS5003;63427;49.654;6.596;2024-02-15T09:28:13;9;8;
74880;PMS5003;63427;49.654;6.596;2024-02-15T09:40:20;9;9;
74880;PMS5003;63427;49.654;6.596;2024-02-15T09:42:46;8;7;
74880;PMS5003;63427;49.654;6.596;2024-02-15T09:45:10;9;8;
74880;PMS5003;63427;49.654;6.596;2024-02-15T09:47:36;7;7;
74880;PMS5003;63427;49.654;6.596;2024-02-15T09:50:01;8;8;
74880;PMS5003;63427;49.654;6.596;2024-02-15T09:52:27;8;7;
74880;PMS5003;63427;49.654;6.596;2024-02-15T09:54:51;9;8;
74880;PMS5003;63427;49.654;6.596;2024-02-15T09:59:42;8;8;
74880;PMS5003;63427;49.654;6.596;2024-02-15T10:02:07;7;7;
74880;PMS5003;63427;49.654;6.596;2024-02-15T10:04:37;7;7;
74880;PMS5003;63427;49.654;6.596;2024-02-15T10:07:12;7;6;
74880;PMS5003;63427;49.654;6.596;2024-02-15T10:11:53;6;6;
74880;PMS5003;63427;49.654;6.596;2024-02-15T10:14:13;6;6;
74880;PMS5003;63427;49.654;6.596;2024-02-15T10:16:39;6;6;
74880;PMS5003;63427;49.654;6.596;2024-02-15T10:36:08;7;7;
74880;PMS5003;63427;49.654;6.596;2024-02-15T10:41:02;6;6;
74880;PMS5003;63427;49.654;6.596;2024-02-15T10:45:42;6;6;
74880;PMS5003;63427;49.654;6.596;2024-02-15T10:48:08;6;6;
74880;PMS5003;63427;49.654;6.596;2024-02-15T10:50:32;7;7;
74880;PMS5003;63427;49.654;6.596;2024-02-15T10:52:58;5;5;
74880;PMS5003;63427;49.654;6.596;2024-02-15T11:02:38;6;6;
74880;PMS5003;63427;49.654;6.596;2024-02-15T11:05:05;6;6;
74880;PMS5003;63427;49.654;6.596;2024-02-15T11:09:54;4;4;
74880;PMS5003;63427;49.654;6.596;2024-02-15T11:12:19;3;3;
74880;PMS5003;63427;49.654;6.596;2024-02-15T11:14:44;3;3;
74880;PMS5003;63427;49.654;6.596;2024-02-15T11:19:40;3;3;
74880;PMS5003;63427;49.654;6.596;2024-02-15T11:22:00;4;4;
74880;PMS5003;63427;49.654;6.596;2024-02-15T11:24:26;6;6;
74880;PMS5003;63427;49.654;6.596;2024-02-15T11:26:51;4;4;
74880;PMS5003;63427;49.654;6.596;2024-02-15T11:38:56;7;6;
74880;PMS5003;63427;49.654;6.596;2024-02-15T11:41:21;6;5;
74880;PMS5003;63427;49.654;6.596;2024-02-15T11:43:53;6;5;
74880;PMS5003;63427;49.654;6.596;2024-02-15T11:53:27;6;6;
74880;PMS5003;63427;49.654;6.596;2024-02-15T12:00:44;6;6;
74880;PMS5003;63427;49.654;6.596;2024-02-15T12:03:08;6;5;
74880;PMS5003;63427;49.654;6.596;2024-02-15T12:07:59;5;5;
74880;PMS5003;63427;49.654;6.596;2024-02-15T12:10:24;5;5;
74880;PMS5003;63427;49.654;6.596;2024-02-15T12:12:51;5;5;
74880;PMS5003;63427;49.654;6.596;2024-02-15T12:15:15;6;6;
74880;PMS5003;63427;49.654;6.596;2024-02-15T12:20:05;5;5;
74880;PMS5003;63427;49.654;6.596;2024-02-15T12:22:31;5;5;
74880;PMS5003;63427;49.654;6.596;2024-02-15T12:24:55;5;4;
74880;PMS5003;63427;49.654;6.596;2024-02-15T12:27:20;6;5;
74880;PMS5003;63427;49.654;6.596;2024-02-15T12:29:45;3;2;
74880;PMS5003;63427;49.654;6.596;2024-02-15T12:34:36;3;3;
74880;PMS5003;63427;49.654;6.596;2024-02-15T12:39:26;3;3;
74880;PMS5003;63427;49.654;6.596;2024-02-15T12:41:51;5;5;
74880;PMS5003;63427;49.654;6.596;2024-02-15T12:44:17;7;5;
74880;PMS5003;63427;49.654;6.596;2024-02-15T12:49:07;7;6;
74880;PMS5003;63427;49.654;6.596;2024-02-15T13:01:12;4;3;
74880;PMS5003;63427;49.654;6.596;2024-02-15T13:03:37;2;2;
74880;PMS5003;63427;49.654;6.596;2024-02-15T13:06:02;2;2;
74880;PMS5003;63427;49.654;6.596;2024-02-15T13:08:27;3;3;
74880;PMS5003;63427;49.654;6.596;2024-02-15T13:22:58;3;3;
74880;PMS5003;63427;49.654;6.596;2024-02-15T13:30:26;3;3;
74880;PMS5003;63427;49.654;6.596;2024-02-15T13:37:29;4;4;
74880;PMS5003;63427;49.654;6.596;2024-02-15T13:42:19;6;6;
74880;PMS5003;63427;49.654;6.596;2024-02-15T13:44:58;4;4;
74880;PMS5003;63427;49.654;6.596;2024-02-15T13:47:09;2;2;
74880;PMS5003;63427;49.654;6.596;2024-02-15T13:52:02;4;4;
74880;PMS5003;63427;49.654;6.596;2024-02-15T14:04:10;2;2;
74880;PMS5003;63427;49.654;6.596;2024-02-15T14:06:30;4;4;
74880;PMS5003;63427;49.654;6.596;2024-02-15T14:11:20;2;2;
74880;PMS5003;63427;49.654;6.596;2024-02-15T14:13:46;3;3;
74880;PMS5003;63427;49.654;6.596;2024-02-15T14:16:11;4;4;
74880;PMS5003;63427;49.654;6.596;2024-02-15T14:28:16;3;3;
74880;PMS5003;63427;49.654;6.596;2024-02-15T14:30:42;2;2;
74880;PMS5003;63427;49.654;6.596;2024-02-15T14:33:07;3;2;
74880;PMS5003;63427;49.654;6.596;2024-02-15T14:35:32;3;3;
74880;PMS5003;63427;49.654;6.596;2024-02-15T14:37:57;2;2;
74880;PMS5003;63427;49.654;6.596;2024-02-15T14:40:23;5;5;
74880;PMS5003;63427;49.654;6.596;2024-02-15T14:42:48;2;2;
74880;PMS5003;63427;49.654;6.596;2024-02-15T14:45:13;3;3;
74880;PMS5003;63427;49.654;6.596;2024-02-15T14:47:39;6;6;
74880;PMS5003;63427;49.654;6.596;2024-02-15T14:50:04;5;5;
74880;PMS5003;63427;49.654;6.596;2024-02-15T14:52:28;4;4;
74880;PMS5003;63427;49.654;6.596;2024-02-15T14:59:44;5;5;
74880;PMS5003;63427;49.654;6.596;2024-02-15T15:02:09;3;3;
74880;PMS5003;63427;49.654;6.596;2024-02-15T15:11:51;4;4;
74880;PMS5003;63427;49.654;6.596;2024-02-15T15:14:15;3;3;
74880;PMS5003;63427;49.654;6.596;2024-02-15T15:16:40;3;3;
74880;PMS5003;63427;49.654;6.596;2024-02-15T15:19:05;1;1;
74880;PMS5003;63427;49.654;6.596;2024-02-15T15:21:30;3;3;
74880;PMS5003;63427;49.654;6.596;2024-02-15T15:33:36;2;2;
74880;PMS5003;63427;49.654;6.596;2024-02-15T15:36:01;4;3;
74880;PMS5003;63427;49.654;6.596;2024-02-15T15:38:27;2;2;
74880;PMS5003;63427;49.654;6.596;2024-02-15T15:40:51;2;2;
74880;PMS5003;63427;49.654;6.596;2024-02-15T15:43:17;3;3;
74880;PMS5003;63427;49.654;6.596;2024-02-15T15:50:32;4;4;
74880;PMS5003;63427;49.654;6.596;2024-02-15T15:53:01;2;2;
74880;PMS5003;63427;49.654;6.596;2024-02-15T16:00:14;5;4;
74880;PMS5003;63427;49.654;6.596;2024-02-15T16:02:39;3;3;
74880;PMS5003;63427;49.654;6.596;2024-02-15T16:05:04;3;3;
74880;PMS5003;63427;49.654;6.596;2024-02-15T16:07:29;3;3;
74880;PMS5003;63427;49.654;6.596;2024-02-15T16:15:12;4;4;
74880;PMS5003;63427;49.654;6.596;2024-02-15T16:17:10;2;2;
74880;PMS5003;63427;49.654;6.596;2024-02-15T16:19:36;3;3;
74880;PMS5003;63427;49.654;6.596;2024-02-15T16:27:01;2;2;
74880;PMS5003;63427;49.654;6.596;2024-02-15T16:29:23;3;3;
74880;PMS5003;63427;49.654;6.596;2024-02-15T16:31:42;2;2;
74880;PMS5003;63427;49.654;6.596;2024-02-15T16:34:07;2;2;
74880;PMS5003;63427;49.654;6.596;2024-02-15T16:36:32;3;2;
74880;PMS5003;63427;49.654;6.596;2024-02-15T16:39:07;2;2;
74880;PMS5003;63427;49.654;6.596;2024-02-15T16:41:23;3;3;
74880;PMS5003;63427;49.654;6.596;2024-02-15T16:51:04;3;3;
74880;PMS5003;63427;49.654;6.596;2024-02-15T16:55:54;3;3;
74880;PMS5003;63427;49.654;6.596;2024-02-15T16:58:19;3;3;
74880;PMS5003;63427;49.654;6.596;2024-02-15T17:54:19;9;8;
74880;PMS5003;63427;49.654;6.596;2024-02-15T18:30:23;3;3;
74880;PMS5003;63427;49.654;6.596;2024-02-15T18:32:49;5;4;
74880;PMS5003;63427;49.654;6.596;2024-02-15T18:35:13;6;6;
74880;PMS5003;63427;49.654;6.596;2024-02-15T18:47:20;4;4;
74880;PMS5003;63427;49.654;6.596;2024-02-15T18:49:45;3;3;
74880;PMS5003;63427;49.654;6.596;2024-02-15T18:52:14;4;4;
74880;PMS5003;63427;49.654;6.596;2024-02-15T18:59:26;4;4;
74880;PMS5003;63427;49.654;6.596;2024-02-15T19:01:52;13;13;
74880;PMS5003;63427;49.654;6.596;2024-02-15T19:04:18;12;12;
74880;PMS5003;63427;49.654;6.596;2024-02-15T19:06:43;11;11;
74880;PMS5003;63427;49.654;6.596;2024-02-15T19:09:09;7;6;
74880;PMS5003;63427;49.654;6.596;2024-02-15T19:18:55;7;7;
74880;PMS5003;63427;49.654;6.596;2024-02-15T19:21:15;7;6;
74880;PMS5003;63427;49.654;6.596;2024-02-15T19:23:41;5;4;
74880;PMS5003;63427;49.654;6.596;2024-02-15T19:26:06;4;4;
74880;PMS5003;63427;49.654;6.596;2024-02-15T19:28:31;6;6;
74880;PMS5003;63427;49.654;6.596;2024-02-15T19:33:22;5;5;
74880;PMS5003;63427;49.654;6.596;2024-02-15T19:50:20;4;4;
74880;PMS5003;63427;49.654;6.596;2024-02-15T19:57:43;9;8;
74880;PMS5003;63427;49.654;6.596;2024-02-15T20:19:24;7;6;
74880;PMS5003;63427;49.654;6.596;2024-02-15T20:31:31;8;7;
74880;PMS5003;63427;49.654;6.596;2024-02-15T21:05:26;5;5;
74880;PMS5003;63427;49.654;6.596;2024-02-15T21:07:52;5;5;
74880;PMS5003;63427;49.654;6.596;2024-02-15T21:10:17;7;6;
74880;PMS5003;63427;49.654;6.596;2024-02-15T21:12:42;5;5;
74880;PMS5003;63427;49.654;6.596;2024-02-15T21:15:07;7;7;
74880;PMS5003;63427;49.654;6.596;2024-02-15T22:44:46;13;12;
74880;PMS5003;63427;49.654;6.596;2024-02-15T22:47:11;13;13;
74880;PMS5003;63427;49.654;6.596;2024-02-15T22:49:37;10;9;
74880;PMS5003;63427;49.654;6.596;2024-02-15T22:52:02;7;7;
74880;PMS5003;63427;49.654;6.596;2024-02-15T22:54:29;7;7;
74880;PMS5003;63427;49.654;6.596;2024-02-15T23:13:51;10;9;
74880;PMS5003;63427;49.654;6.596;2024-02-15T23:18:41;7;7;
74880;PMS5003;63427;49.654;6.596;2024-02-15T23:21:07;7;7;
74880;PMS5003;63427;49.654;6.596;2024-02-15T23:23:41;8;8;
74880;PMS5003;63427;49.654;6.596;2024-02-15T23:25:58;6;6;
74880;PMS5003;63427;49.654;6.596;2024-02-15T23:28:23;8;8;
74880;PMS5003;63427;49.654;6.596;2024-02-15T23:30:48;8;8;
74880;PMS5003;63427;49.654;6.596;2024-02-15T23:35:39;9;9;
74880;PMS5003;63427;49.654;6.596;2024-02-15T23:38:05;10;9;
74880;PMS5003;63427;49.654;6.596;2024-02-15T23:40:30;10;10;
74880;PMS5003;63427;49.654;6.596;2024-02-15T23:42:55;11;11;
74880;PMS5003;63427;49.654;6.596;2024-02-15T23:45:20;10;10;
74880;PMS5003;63427;49.654;6.596;2024-02-15T23:47:46;8;7;
74880;PMS5003;63427;49.654;6.596;2024-02-15T23:50:11;10;10;
74880;PMS5003;63427;49.654;6.596;2024-02-15T23:52:37;9;9;
74880;PMS5003;63427;49.654;6.596;2024-02-15T23:55:02;8;8;
